sensor_id;sensor_type;location;lat;lon;timestamp;P1;durP1;ratioP1;P2;durP2;ratioP2
15307;SDS011;7755;52.208;6.964;2023-12-14T00:00:21;36.20;;;23.33;;
15307;SDS011;7755;52.208;6.964;2023-12-14T00:04:26;37.40;;;23.97;;
15307;SDS011;7755;52.208;6.964;2023-12-14T00:08:35;38.00;;;23.10;;
15307;SDS011;7755;52.208;6.964;2023-12-14T00:12:40;44.97;;;27.23;;
15307;SDS011;7755;52.208;6.964;2023-12-14T00:16:46;41.00;;;28.20;;
15307;SDS011;7755;52.208;6.964;2023-12-14T00:20:51;36.87;;;23.97;;
15307;SDS011;7755;52.208;6.964;2023-12-14T00:25:01;41.77;;;27.17;;
15307;SDS011;7755;52.208;6.964;2023-12-14T00:29:06;39.37;;;24.47;;
15307;SDS011;7755;52.208;6.964;2023-12-14T00:33:11;31.60;;;20.90;;
15307;SDS011;7755;52.208;6.964;2023-12-14T00:37:16;33.30;;;21.90;;
15307;SDS011;7755;52.208;6.964;2023-12-14T00:41:24;29.00;;;18.37;;
15307;SDS011;7755;52.208;6.964;2023-12-14T00:45:28;29.30;;;19.03;;
15307;SDS011;7755;52.208;6.964;2023-12-14T00:49:33;35.87;;;24.23;;
15307;SDS011;7755;52.208;6.964;2023-12-14T00:53:39;39.37;;;26.27;;
15307;SDS011;7755;52.208;6.964;2023-12-14T00:57:46;44.80;;;26.83;;
15307;SDS011;7755;52.208;6.964;2023-12-14T01:01:51;39.33;;;26.20;;
15307;SDS011;7755;52.208;6.964;2023-12-14T01:05:56;35.97;;;24.77;;
15307;SDS011;7755;52.208;6.964;2023-12-14T01:10:02;36.03;;;25.33;;
15307;SDS011;7755;52.208;6.964;2023-12-14T01:14:10;37.27;;;23.63;;
15307;SDS011;7755;52.208;6.964;2023-12-14T01:18:16;38.80;;;23.90;;
15307;SDS011;7755;52.208;6.964;2023-12-14T01:22:21;36.90;;;24.13;;
15307;SDS011;7755;52.208;6.964;2023-12-14T01:26:26;35.53;;;22.93;;
15307;SDS011;7755;52.208;6.964;2023-12-14T01:30:33;30.77;;;22.10;;
15307;SDS011;7755;52.208;6.964;2023-12-14T01:34:39;35.07;;;23.27;;
15307;SDS011;7755;52.208;6.964;2023-12-14T01:38:44;36.33;;;23.47;;
15307;SDS011;7755;52.208;6.964;2023-12-14T01:42:49;34.80;;;23.77;;
15307;SDS011;7755;52.208;6.964;2023-12-14T01:46:56;32.50;;;23.10;;
15307;SDS011;7755;52.208;6.964;2023-12-14T01:51:01;36.07;;;23.43;;
15307;SDS011;7755;52.208;6.964;2023-12-14T01:55:06;33.63;;;22.10;;
15307;SDS011;7755;52.208;6.964;2023-12-14T01:59:12;39.10;;;23.97;;
15307;SDS011;7755;52.208;6.964;2023-12-14T02:03:20;37.53;;;23.53;;
15307;SDS011;7755;52.208;6.964;2023-12-14T02:07:25;38.60;;;25.23;;
15307;SDS011;7755;52.208;6.964;2023-12-14T02:11:31;39.53;;;25.00;;
15307;SDS011;7755;52.208;6.964;2023-12-14T02:15:36;38.87;;;24.67;;
15307;SDS011;7755;52.208;6.964;2023-12-14T02:19:44;41.67;;;25.13;;
15307;SDS011;7755;52.208;6.964;2023-12-14T02:23:52;36.43;;;24.63;;
15307;SDS011;7755;52.208;6.964;2023-12-14T02:27:57;33.80;;;22.97;;
15307;SDS011;7755;52.208;6.964;2023-12-14T02:32:02;33.13;;;23.67;;
15307;SDS011;7755;52.208;6.964;2023-12-14T02:36:07;37.60;;;23.47;;
15307;SDS011;7755;52.208;6.964;2023-12-14T02:40:16;33.57;;;22.10;;
15307;SDS011;7755;52.208;6.964;2023-12-14T02:44:21;28.17;;;19.83;;
15307;SDS011;7755;52.208;6.964;2023-12-14T02:57:31;33.23;;;20.03;;
15307;SDS011;7755;52.208;6.964;2023-12-14T03:01:37;27.90;;;19.63;;
15307;SDS011;7755;52.208;6.964;2023-12-14T03:05:56;28.03;;;19.17;;
15307;SDS011;7755;52.208;6.964;2023-12-14T03:10:02;24.67;;;16.00;;
15307;SDS011;7755;52.208;6.964;2023-12-14T03:14:09;24.23;;;17.77;;
15307;SDS011;7755;52.208;6.964;2023-12-14T03:18:14;28.67;;;18.93;;
15307;SDS011;7755;52.208;6.964;2023-12-14T03:22:19;21.37;;;15.03;;
15307;SDS011;7755;52.208;6.964;2023-12-14T03:26:24;25.57;;;18.03;;
15307;SDS011;7755;52.208;6.964;2023-12-14T03:30:32;23.57;;;17.17;;
15307;SDS011;7755;52.208;6.964;2023-12-14T03:34:36;25.47;;;17.30;;
15307;SDS011;7755;52.208;6.964;2023-12-14T03:38:43;23.20;;;16.60;;
15307;SDS011;7755;52.208;6.964;2023-12-14T03:42:56;23.60;;;16.97;;
15307;SDS011;7755;52.208;6.964;2023-12-14T03:47:03;22.43;;;15.73;;
15307;SDS011;7755;52.208;6.964;2023-12-14T03:51:08;21.10;;;15.87;;
15307;SDS011;7755;52.208;6.964;2023-12-14T03:59:38;24.97;;;18.37;;
15307;SDS011;7755;52.208;6.964;2023-12-14T04:03:46;22.70;;;16.50;;
15307;SDS011;7755;52.208;6.964;2023-12-14T04:07:52;19.77;;;15.20;;
15307;SDS011;7755;52.208;6.964;2023-12-14T04:11:57;22.47;;;16.43;;
15307;SDS011;7755;52.208;6.964;2023-12-14T04:16:02;23.67;;;17.53;;
15307;SDS011;7755;52.208;6.964;2023-12-14T04:20:10;22.30;;;16.40;;
15307;SDS011;7755;52.208;6.964;2023-12-14T04:24:17;22.33;;;15.67;;
15307;SDS011;7755;52.208;6.964;2023-12-14T04:28:23;19.50;;;15.27;;
15307;SDS011;7755;52.208;6.964;2023-12-14T04:32:28;24.67;;;15.77;;
15307;SDS011;7755;52.208;6.964;2023-12-14T04:36:35;18.83;;;14.40;;
15307;SDS011;7755;52.208;6.964;2023-12-14T04:40:40;20.83;;;15.10;;
15307;SDS011;7755;52.208;6.964;2023-12-14T04:44:45;20.40;;;14.60;;
15307;SDS011;7755;52.208;6.964;2023-12-14T04:48:52;16.73;;;13.70;;
15307;SDS011;7755;52.208;6.964;2023-12-14T04:53:00;20.83;;;14.30;;
15307;SDS011;7755;52.208;6.964;2023-12-14T04:57:07;18.87;;;13.13;;
15307;SDS011;7755;52.208;6.964;2023-12-14T05:01:11;20.43;;;14.20;;
15307;SDS011;7755;52.208;6.964;2023-12-14T05:05:16;17.30;;;13.03;;
15307;SDS011;7755;52.208;6.964;2023-12-14T05:09:25;16.23;;;12.97;;
15307;SDS011;7755;52.208;6.964;2023-12-14T05:13:31;18.70;;;14.00;;
15307;SDS011;7755;52.208;6.964;2023-12-14T05:17:36;19.17;;;15.03;;
15307;SDS011;7755;52.208;6.964;2023-12-14T05:21:42;19.00;;;14.00;;
15307;SDS011;7755;52.208;6.964;2023-12-14T05:25:58;17.93;;;13.23;;
15307;SDS011;7755;52.208;6.964;2023-12-14T05:30:03;19.07;;;13.43;;
15307;SDS011;7755;52.208;6.964;2023-12-14T05:34:08;17.77;;;13.93;;
15307;SDS011;7755;52.208;6.964;2023-12-14T05:38:23;18.90;;;14.70;;
15307;SDS011;7755;52.208;6.964;2023-12-14T05:42:32;23.03;;;15.50;;
15307;SDS011;7755;52.208;6.964;2023-12-14T05:46:38;22.90;;;16.73;;
15307;SDS011;7755;52.208;6.964;2023-12-14T05:50:44;26.97;;;18.40;;
15307;SDS011;7755;52.208;6.964;2023-12-14T05:54:57;23.50;;;17.47;;
15307;SDS011;7755;52.208;6.964;2023-12-14T05:59:21;25.37;;;17.23;;
15307;SDS011;7755;52.208;6.964;2023-12-14T06:03:26;28.03;;;20.43;;
15307;SDS011;7755;52.208;6.964;2023-12-14T06:07:33;28.60;;;20.03;;
15307;SDS011;7755;52.208;6.964;2023-12-14T06:11:39;25.20;;;17.83;;
15307;SDS011;7755;52.208;6.964;2023-12-14T06:15:46;27.27;;;18.87;;
15307;SDS011;7755;52.208;6.964;2023-12-14T06:19:52;24.07;;;17.17;;
15307;SDS011;7755;52.208;6.964;2023-12-14T06:24:00;26.73;;;18.63;;
15307;SDS011;7755;52.208;6.964;2023-12-14T06:28:06;23.17;;;16.47;;
15307;SDS011;7755;52.208;6.964;2023-12-14T06:32:15;28.87;;;18.87;;
15307;SDS011;7755;52.208;6.964;2023-12-14T06:36:20;25.07;;;18.57;;
15307;SDS011;7755;52.208;6.964;2023-12-14T06:40:28;25.37;;;17.73;;
15307;SDS011;7755;52.208;6.964;2023-12-14T06:44:34;24.80;;;17.33;;
15307;SDS011;7755;52.208;6.964;2023-12-14T06:48:44;24.40;;;16.87;;
15307;SDS011;7755;52.208;6.964;2023-12-14T06:52:50;24.67;;;18.23;;
15307;SDS011;7755;52.208;6.964;2023-12-14T06:56:54;27.50;;;18.53;;
15307;SDS011;7755;52.208;6.964;2023-12-14T07:01:00;23.80;;;16.33;;
15307;SDS011;7755;52.208;6.964;2023-12-14T07:05:08;22.23;;;15.67;;
15307;SDS011;7755;52.208;6.964;2023-12-14T07:09:13;22.07;;;16.13;;
15307;SDS011;7755;52.208;6.964;2023-12-14T07:13:26;19.50;;;14.70;;
15307;SDS011;7755;52.208;6.964;2023-12-14T07:17:31;24.03;;;15.40;;
15307;SDS011;7755;52.208;6.964;2023-12-14T07:21:38;20.97;;;14.70;;
15307;SDS011;7755;52.208;6.964;2023-12-14T07:25:47;19.30;;;13.73;;
15307;SDS011;7755;52.208;6.964;2023-12-14T07:29:52;17.83;;;14.20;;
15307;SDS011;7755;52.208;6.964;2023-12-14T07:33:57;19.40;;;14.13;;
15307;SDS011;7755;52.208;6.964;2023-12-14T07:38:05;17.03;;;14.10;;
15307;SDS011;7755;52.208;6.964;2023-12-14T07:42:10;18.87;;;13.80;;
15307;SDS011;7755;52.208;6.964;2023-12-14T07:46:21;18.20;;;13.73;;
15307;SDS011;7755;52.208;6.964;2023-12-14T07:50:27;21.20;;;15.63;;
15307;SDS011;7755;52.208;6.964;2023-12-14T07:54:34;18.73;;;14.30;;
15307;SDS011;7755;52.208;6.964;2023-12-14T07:58:39;18.40;;;14.27;;
15307;SDS011;7755;52.208;6.964;2023-12-14T08:02:45;21.80;;;14.43;;
15307;SDS011;7755;52.208;6.964;2023-12-14T08:06:51;21.20;;;16.67;;
15307;SDS011;7755;52.208;6.964;2023-12-14T08:10:59;21.47;;;16.80;;
15307;SDS011;7755;52.208;6.964;2023-12-14T08:15:05;23.87;;;17.60;;
15307;SDS011;7755;52.208;6.964;2023-12-14T08:19:11;24.83;;;18.13;;
15307;SDS011;7755;52.208;6.964;2023-12-14T08:23:16;24.87;;;18.30;;
15307;SDS011;7755;52.208;6.964;2023-12-14T08:27:25;27.10;;;19.70;;
15307;SDS011;7755;52.208;6.964;2023-12-14T08:31:30;27.50;;;19.63;;
15307;SDS011;7755;52.208;6.964;2023-12-14T08:35:35;26.47;;;18.97;;
15307;SDS011;7755;52.208;6.964;2023-12-14T08:39:41;26.03;;;19.40;;
15307;SDS011;7755;52.208;6.964;2023-12-14T08:43:49;24.97;;;19.00;;
15307;SDS011;7755;52.208;6.964;2023-12-14T08:47:55;26.87;;;19.37;;
15307;SDS011;7755;52.208;6.964;2023-12-14T08:52:00;32.83;;;21.97;;
15307;SDS011;7755;52.208;6.964;2023-12-14T09:00:38;24.47;;;19.13;;
15307;SDS011;7755;52.208;6.964;2023-12-14T09:04:48;23.33;;;17.60;;
15307;SDS011;7755;52.208;6.964;2023-12-14T09:08:54;23.70;;;17.07;;
15307;SDS011;7755;52.208;6.964;2023-12-14T09:12:58;23.27;;;16.80;;
15307;SDS011;7755;52.208;6.964;2023-12-14T09:17:08;21.87;;;16.97;;
15307;SDS011;7755;52.208;6.964;2023-12-14T09:21:26;21.43;;;15.23;;
15307;SDS011;7755;52.208;6.964;2023-12-14T09:25:44;24.17;;;16.67;;
15307;SDS011;7755;52.208;6.964;2023-12-14T09:29:49;18.90;;;15.50;;
15307;SDS011;7755;52.208;6.964;2023-12-14T09:33:54;21.53;;;15.77;;
15307;SDS011;7755;52.208;6.964;2023-12-14T09:38:02;20.80;;;14.43;;
15307;SDS011;7755;52.208;6.964;2023-12-14T09:42:07;19.97;;;15.50;;
15307;SDS011;7755;52.208;6.964;2023-12-14T09:46:11;21.40;;;15.93;;
15307;SDS011;7755;52.208;6.964;2023-12-14T09:50:18;20.90;;;15.30;;
15307;SDS011;7755;52.208;6.964;2023-12-14T09:54:27;18.20;;;14.80;;
15307;SDS011;7755;52.208;6.964;2023-12-14T09:58:33;18.40;;;14.47;;
15307;SDS011;7755;52.208;6.964;2023-12-14T10:02:38;18.50;;;13.53;;
15307;SDS011;7755;52.208;6.964;2023-12-14T10:06:43;19.13;;;13.90;;
15307;SDS011;7755;52.208;6.964;2023-12-14T10:10:53;16.23;;;12.93;;
15307;SDS011;7755;52.208;6.964;2023-12-14T10:15:07;19.17;;;14.20;;
15307;SDS011;7755;52.208;6.964;2023-12-14T10:19:12;15.93;;;12.80;;
15307;SDS011;7755;52.208;6.964;2023-12-14T10:23:28;20.13;;;15.23;;
15307;SDS011;7755;52.208;6.964;2023-12-14T10:27:37;18.37;;;14.20;;
15307;SDS011;7755;52.208;6.964;2023-12-14T10:31:43;18.70;;;13.77;;
15307;SDS011;7755;52.208;6.964;2023-12-14T10:35:50;19.63;;;14.23;;
15307;SDS011;7755;52.208;6.964;2023-12-14T10:40:07;16.23;;;13.50;;
15307;SDS011;7755;52.208;6.964;2023-12-14T10:53:30;17.83;;;14.23;;
15307;SDS011;7755;52.208;6.964;2023-12-14T10:57:36;23.47;;;13.97;;
15307;SDS011;7755;52.208;6.964;2023-12-14T11:01:47;17.70;;;13.23;;
15307;SDS011;7755;52.208;6.964;2023-12-14T11:05:56;17.33;;;11.67;;
15307;SDS011;7755;52.208;6.964;2023-12-14T11:10:13;16.30;;;12.43;;
15307;SDS011;7755;52.208;6.964;2023-12-14T11:14:20;14.03;;;11.73;;
15307;SDS011;7755;52.208;6.964;2023-12-14T11:18:29;15.67;;;11.97;;
15307;SDS011;7755;52.208;6.964;2023-12-14T11:22:34;15.10;;;11.73;;
15307;SDS011;7755;52.208;6.964;2023-12-14T11:26:39;16.20;;;12.47;;
15307;SDS011;7755;52.208;6.964;2023-12-14T11:30:45;15.27;;;11.30;;
15307;SDS011;7755;52.208;6.964;2023-12-14T11:34:59;14.43;;;10.70;;
15307;SDS011;7755;52.208;6.964;2023-12-14T11:39:05;13.87;;;11.13;;
15307;SDS011;7755;52.208;6.964;2023-12-14T11:43:11;13.90;;;10.77;;
15307;SDS011;7755;52.208;6.964;2023-12-14T11:47:17;15.47;;;11.13;;
15307;SDS011;7755;52.208;6.964;2023-12-14T11:51:25;13.90;;;11.37;;
15307;SDS011;7755;52.208;6.964;2023-12-14T11:55:33;13.70;;;10.43;;
15307;SDS011;7755;52.208;6.964;2023-12-14T11:59:40;13.03;;;11.10;;
15307;SDS011;7755;52.208;6.964;2023-12-14T12:03:45;13.87;;;10.87;;
15307;SDS011;7755;52.208;6.964;2023-12-14T12:07:59;15.70;;;11.27;;
15307;SDS011;7755;52.208;6.964;2023-12-14T12:12:05;13.20;;;10.37;;
15307;SDS011;7755;52.208;6.964;2023-12-14T12:16:11;15.27;;;10.40;;
15307;SDS011;7755;52.208;6.964;2023-12-14T12:20:16;12.20;;;9.20;;
15307;SDS011;7755;52.208;6.964;2023-12-14T12:24:23;11.30;;;9.33;;
15307;SDS011;7755;52.208;6.964;2023-12-14T12:32:45;12.67;;;10.63;;
15307;SDS011;7755;52.208;6.964;2023-12-14T12:36:56;11.03;;;8.47;;
15307;SDS011;7755;52.208;6.964;2023-12-14T12:41:04;10.47;;;9.00;;
15307;SDS011;7755;52.208;6.964;2023-12-14T12:45:09;10.70;;;8.87;;
15307;SDS011;7755;52.208;6.964;2023-12-14T12:49:15;10.37;;;8.03;;
15307;SDS011;7755;52.208;6.964;2023-12-14T12:53:19;13.57;;;9.93;;
15307;SDS011;7755;52.208;6.964;2023-12-14T12:57:27;11.43;;;8.97;;
15307;SDS011;7755;52.208;6.964;2023-12-14T13:01:32;9.70;;;8.17;;
15307;SDS011;7755;52.208;6.964;2023-12-14T13:05:36;11.43;;;8.17;;
15307;SDS011;7755;52.208;6.964;2023-12-14T13:09:42;10.17;;;8.47;;
15307;SDS011;7755;52.208;6.964;2023-12-14T13:13:49;11.20;;;9.50;;
15307;SDS011;7755;52.208;6.964;2023-12-14T13:17:54;11.23;;;8.43;;
15307;SDS011;7755;52.208;6.964;2023-12-14T13:22:03;10.73;;;9.17;;
15307;SDS011;7755;52.208;6.964;2023-12-14T13:26:08;9.80;;;8.80;;
15307;SDS011;7755;52.208;6.964;2023-12-14T13:30:15;11.43;;;9.33;;
15307;SDS011;7755;52.208;6.964;2023-12-14T13:34:21;11.43;;;8.73;;
15307;SDS011;7755;52.208;6.964;2023-12-14T13:38:26;12.47;;;8.87;;
15307;SDS011;7755;52.208;6.964;2023-12-14T13:42:33;10.87;;;9.17;;
15307;SDS011;7755;52.208;6.964;2023-12-14T13:46:53;10.93;;;8.83;;
15307;SDS011;7755;52.208;6.964;2023-12-14T13:50:58;11.83;;;9.00;;
15307;SDS011;7755;52.208;6.964;2023-12-14T13:55:04;10.87;;;9.00;;
15307;SDS011;7755;52.208;6.964;2023-12-14T13:59:10;14.93;;;10.23;;
15307;SDS011;7755;52.208;6.964;2023-12-14T14:03:17;11.87;;;9.30;;
15307;SDS011;7755;52.208;6.964;2023-12-14T14:07:22;11.57;;;9.63;;
15307;SDS011;7755;52.208;6.964;2023-12-14T14:11:27;14.30;;;10.50;;
15307;SDS011;7755;52.208;6.964;2023-12-14T14:15:32;14.07;;;11.20;;
15307;SDS011;7755;52.208;6.964;2023-12-14T14:19:40;16.10;;;12.83;;
15307;SDS011;7755;52.208;6.964;2023-12-14T14:23:45;16.00;;;11.50;;
15307;SDS011;7755;52.208;6.964;2023-12-14T14:27:56;18.47;;;13.27;;
15307;SDS011;7755;52.208;6.964;2023-12-14T14:32:03;20.00;;;13.60;;
15307;SDS011;7755;52.208;6.964;2023-12-14T14:36:11;15.17;;;11.60;;
15307;SDS011;7755;52.208;6.964;2023-12-14T14:40:16;16.37;;;11.60;;
15307;SDS011;7755;52.208;6.964;2023-12-14T14:44:21;16.07;;;11.57;;
15307;SDS011;7755;52.208;6.964;2023-12-14T14:48:27;14.93;;;10.87;;
15307;SDS011;7755;52.208;6.964;2023-12-14T14:52:34;18.20;;;11.33;;
15307;SDS011;7755;52.208;6.964;2023-12-14T14:56:39;15.17;;;11.77;;
15307;SDS011;7755;52.208;6.964;2023-12-14T15:00:46;13.33;;;11.23;;
15307;SDS011;7755;52.208;6.964;2023-12-14T15:04:51;15.77;;;12.17;;
15307;SDS011;7755;52.208;6.964;2023-12-14T15:08:59;15.10;;;12.97;;
15307;SDS011;7755;52.208;6.964;2023-12-14T15:13:09;14.10;;;10.73;;
15307;SDS011;7755;52.208;6.964;2023-12-14T15:17:17;17.33;;;12.43;;
15307;SDS011;7755;52.208;6.964;2023-12-14T15:21:24;17.37;;;12.90;;
15307;SDS011;7755;52.208;6.964;2023-12-14T15:25:31;17.47;;;12.53;;
15307;SDS011;7755;52.208;6.964;2023-12-14T15:29:37;16.80;;;11.73;;
15307;SDS011;7755;52.208;6.964;2023-12-14T15:33:42;13.97;;;11.30;;
15307;SDS011;7755;52.208;6.964;2023-12-14T15:37:47;19.67;;;12.57;;
15307;SDS011;7755;52.208;6.964;2023-12-14T15:41:54;16.13;;;11.63;;
15307;SDS011;7755;52.208;6.964;2023-12-14T15:46:00;13.00;;;11.30;;
15307;SDS011;7755;52.208;6.964;2023-12-14T15:50:05;14.60;;;11.33;;
15307;SDS011;7755;52.208;6.964;2023-12-14T15:54:11;14.43;;;11.40;;
15307;SDS011;7755;52.208;6.964;2023-12-14T15:58:18;14.67;;;10.93;;
15307;SDS011;7755;52.208;6.964;2023-12-14T16:02:23;12.63;;;10.33;;
15307;SDS011;7755;52.208;6.964;2023-12-14T16:06:28;16.13;;;12.53;;
15307;SDS011;7755;52.208;6.964;2023-12-14T16:10:33;14.47;;;10.90;;
15307;SDS011;7755;52.208;6.964;2023-12-14T16:14:40;18.43;;;12.40;;
15307;SDS011;7755;52.208;6.964;2023-12-14T16:18:45;15.23;;;11.00;;
15307;SDS011;7755;52.208;6.964;2023-12-14T16:22:50;15.70;;;11.70;;
15307;SDS011;7755;52.208;6.964;2023-12-14T16:26:56;19.83;;;12.93;;
15307;SDS011;7755;52.208;6.964;2023-12-14T16:31:05;16.37;;;12.27;;
15307;SDS011;7755;52.208;6.964;2023-12-14T16:35:10;13.90;;;10.93;;
15307;SDS011;7755;52.208;6.964;2023-12-14T16:39:17;16.90;;;11.83;;
15307;SDS011;7755;52.208;6.964;2023-12-14T16:43:22;16.07;;;10.50;;
15307;SDS011;7755;52.208;6.964;2023-12-14T16:47:29;13.87;;;10.40;;
15307;SDS011;7755;52.208;6.964;2023-12-14T16:51:35;19.23;;;12.07;;
15307;SDS011;7755;52.208;6.964;2023-12-14T16:55:41;22.10;;;15.77;;
15307;SDS011;7755;52.208;6.964;2023-12-14T16:59:46;23.67;;;15.83;;
15307;SDS011;7755;52.208;6.964;2023-12-14T17:03:54;20.87;;;15.63;;
15307;SDS011;7755;52.208;6.964;2023-12-14T17:08:01;21.83;;;13.63;;
15307;SDS011;7755;52.208;6.964;2023-12-14T17:12:06;22.13;;;14.03;;
15307;SDS011;7755;52.208;6.964;2023-12-14T17:16:11;15.70;;;12.30;;
15307;SDS011;7755;52.208;6.964;2023-12-14T17:20:20;20.17;;;13.37;;
15307;SDS011;7755;52.208;6.964;2023-12-14T17:24:25;18.27;;;12.60;;
15307;SDS011;7755;52.208;6.964;2023-12-14T17:28:30;14.97;;;11.53;;
15307;SDS011;7755;52.208;6.964;2023-12-14T17:32:36;12.63;;;11.20;;
15307;SDS011;7755;52.208;6.964;2023-12-14T17:36:45;20.43;;;14.13;;
15307;SDS011;7755;52.208;6.964;2023-12-14T17:40:57;16.60;;;12.03;;
15307;SDS011;7755;52.208;6.964;2023-12-14T17:45:06;18.00;;;12.33;;
15307;SDS011;7755;52.208;6.964;2023-12-14T17:49:13;15.20;;;11.23;;
15307;SDS011;7755;52.208;6.964;2023-12-14T17:53:22;17.93;;;12.70;;
15307;SDS011;7755;52.208;6.964;2023-12-14T17:57:33;18.60;;;12.77;;
15307;SDS011;7755;52.208;6.964;2023-12-14T18:10:40;18.90;;;13.13;;
15307;SDS011;7755;52.208;6.964;2023-12-14T18:15:00;19.33;;;12.13;;
15307;SDS011;7755;52.208;6.964;2023-12-14T18:19:20;18.30;;;12.50;;
15307;SDS011;7755;52.208;6.964;2023-12-14T18:32:32;25.47;;;17.67;;
15307;SDS011;7755;52.208;6.964;2023-12-14T18:36:49;22.07;;;15.17;;
15307;SDS011;7755;52.208;6.964;2023-12-14T18:41:06;22.50;;;16.07;;
15307;SDS011;7755;52.208;6.964;2023-12-14T18:45:15;21.53;;;16.07;;
15307;SDS011;7755;52.208;6.964;2023-12-14T18:49:20;20.43;;;15.23;;
15307;SDS011;7755;52.208;6.964;2023-12-14T18:58:02;20.63;;;14.53;;
15307;SDS011;7755;52.208;6.964;2023-12-14T19:02:15;20.33;;;15.13;;
15307;SDS011;7755;52.208;6.964;2023-12-14T19:06:29;21.20;;;15.33;;
15307;SDS011;7755;52.208;6.964;2023-12-14T19:10:44;22.30;;;16.17;;
15307;SDS011;7755;52.208;6.964;2023-12-14T19:19:13;19.83;;;15.23;;
15307;SDS011;7755;52.208;6.964;2023-12-14T19:32:05;20.17;;;14.30;;
15307;SDS011;7755;52.208;6.964;2023-12-14T19:36:15;23.03;;;14.20;;
15307;SDS011;7755;52.208;6.964;2023-12-14T19:40:27;23.17;;;15.73;;
15307;SDS011;7755;52.208;6.964;2023-12-14T19:44:40;23.53;;;16.07;;
15307;SDS011;7755;52.208;6.964;2023-12-14T19:48:47;21.43;;;15.67;;
15307;SDS011;7755;52.208;6.964;2023-12-14T19:52:56;21.97;;;15.77;;
15307;SDS011;7755;52.208;6.964;2023-12-14T19:57:02;18.83;;;14.83;;
15307;SDS011;7755;52.208;6.964;2023-12-14T20:01:08;19.20;;;15.67;;
15307;SDS011;7755;52.208;6.964;2023-12-14T20:05:28;19.80;;;14.80;;
15307;SDS011;7755;52.208;6.964;2023-12-14T20:09:40;24.30;;;16.87;;
15307;SDS011;7755;52.208;6.964;2023-12-14T20:13:58;19.57;;;15.27;;
15307;SDS011;7755;52.208;6.964;2023-12-14T20:18:03;23.90;;;16.73;;
15307;SDS011;7755;52.208;6.964;2023-12-14T20:22:09;21.43;;;15.67;;
15307;SDS011;7755;52.208;6.964;2023-12-14T20:26:24;21.67;;;15.73;;
15307;SDS011;7755;52.208;6.964;2023-12-14T20:30:32;26.07;;;16.47;;
15307;SDS011;7755;52.208;6.964;2023-12-14T20:34:39;23.03;;;17.07;;
15307;SDS011;7755;52.208;6.964;2023-12-14T20:38:45;25.20;;;17.60;;
15307;SDS011;7755;52.208;6.964;2023-12-14T20:42:53;23.30;;;16.27;;
15307;SDS011;7755;52.208;6.964;2023-12-14T20:46:59;23.87;;;17.30;;
15307;SDS011;7755;52.208;6.964;2023-12-14T20:51:05;22.43;;;17.07;;
15307;SDS011;7755;52.208;6.964;2023-12-14T20:55:12;21.97;;;16.83;;
15307;SDS011;7755;52.208;6.964;2023-12-14T20:59:20;33.47;;;18.20;;
15307;SDS011;7755;52.208;6.964;2023-12-14T21:03:27;23.07;;;16.90;;
15307;SDS011;7755;52.208;6.964;2023-12-14T21:07:33;27.33;;;17.57;;
15307;SDS011;7755;52.208;6.964;2023-12-14T21:11:39;22.23;;;15.10;;
15307;SDS011;7755;52.208;6.964;2023-12-14T21:15:52;26.87;;;17.53;;
15307;SDS011;7755;52.208;6.964;2023-12-14T21:19:58;21.40;;;15.23;;
15307;SDS011;7755;52.208;6.964;2023-12-14T21:24:04;22.90;;;16.40;;
15307;SDS011;7755;52.208;6.964;2023-12-14T21:28:15;26.23;;;17.80;;
15307;SDS011;7755;52.208;6.964;2023-12-14T21:32:23;24.67;;;16.80;;
15307;SDS011;7755;52.208;6.964;2023-12-14T21:36:29;21.17;;;16.10;;
15307;SDS011;7755;52.208;6.964;2023-12-14T21:40:33;23.57;;;16.27;;
15307;SDS011;7755;52.208;6.964;2023-12-14T21:44:40;24.43;;;17.27;;
15307;SDS011;7755;52.208;6.964;2023-12-14T21:48:54;24.60;;;18.77;;
15307;SDS011;7755;52.208;6.964;2023-12-14T21:53:11;23.93;;;18.00;;
15307;SDS011;7755;52.208;6.964;2023-12-14T21:57:16;27.57;;;19.43;;
15307;SDS011;7755;52.208;6.964;2023-12-14T22:01:21;29.93;;;19.83;;
15307;SDS011;7755;52.208;6.964;2023-12-14T22:05:29;27.97;;;20.43;;
15307;SDS011;7755;52.208;6.964;2023-12-14T22:09:34;28.80;;;20.97;;
15307;SDS011;7755;52.208;6.964;2023-12-14T22:13:39;26.93;;;20.07;;
15307;SDS011;7755;52.208;6.964;2023-12-14T22:17:45;22.53;;;17.47;;
15307;SDS011;7755;52.208;6.964;2023-12-14T22:21:52;29.20;;;19.53;;
15307;SDS011;7755;52.208;6.964;2023-12-14T22:25:57;29.10;;;20.73;;
15307;SDS011;7755;52.208;6.964;2023-12-14T22:30:03;28.40;;;20.23;;
15307;SDS011;7755;52.208;6.964;2023-12-14T22:34:12;28.37;;;20.53;;
15307;SDS011;7755;52.208;6.964;2023-12-14T22:38:19;28.97;;;19.33;;
15307;SDS011;7755;52.208;6.964;2023-12-14T22:42:26;29.13;;;20.00;;
15307;SDS011;7755;52.208;6.964;2023-12-14T22:46:31;25.23;;;18.67;;
15307;SDS011;7755;52.208;6.964;2023-12-14T22:50:35;30.13;;;20.43;;
15307;SDS011;7755;52.208;6.964;2023-12-14T22:54:43;32.10;;;21.87;;
15307;SDS011;7755;52.208;6.964;2023-12-14T22:58:48;28.23;;;18.03;;
15307;SDS011;7755;52.208;6.964;2023-12-14T23:02:53;26.57;;;18.20;;
15307;SDS011;7755;52.208;6.964;2023-12-14T23:07:00;33.80;;;21.13;;
15307;SDS011;7755;52.208;6.964;2023-12-14T23:11:07;30.20;;;20.27;;
15307;SDS011;7755;52.208;6.964;2023-12-14T23:15:12;30.07;;;20.00;;
15307;SDS011;7755;52.208;6.964;2023-12-14T23:19:18;28.87;;;20.77;;
15307;SDS011;7755;52.208;6.964;2023-12-14T23:23:23;26.73;;;18.67;;
15307;SDS011;7755;52.208;6.964;2023-12-14T23:27:31;27.10;;;19.30;;
15307;SDS011;7755;52.208;6.964;2023-12-14T23:31:38;27.87;;;19.83;;
15307;SDS011;7755;52.208;6.964;2023-12-14T23:35:43;27.40;;;20.53;;
15307;SDS011;7755;52.208;6.964;2023-12-14T23:39:51;34.40;;;22.77;;
15307;SDS011;7755;52.208;6.964;2023-12-14T23:43:59;29.07;;;20.83;;
15307;SDS011;7755;52.208;6.964;2023-12-14T23:48:04;31.73;;;19.73;;
15307;SDS011;7755;52.208;6.964;2023-12-14T23:52:09;33.27;;;21.23;;
15307;SDS011;7755;52.208;6.964;2023-12-14T23:56:14;31.23;;;21.27;;
